sensor_id;sensor_type;location;lat;lon;timestamp;P1;durP1;ratioP1;P2;durP2;ratioP2
9422;SDS011;4750;49.506;10.400;2022-07-12T00:00:47;2.33;;;2.13;;
9422;SDS011;4750;49.506;10.400;2022-07-12T00:03:31;2.40;;;2.20;;
9422;SDS011;4750;49.506;10.400;2022-07-12T00:06:16;3.43;;;2.00;;
9422;SDS011;4750;49.506;10.400;2022-07-12T00:08:59;2.50;;;2.30;;
9422;SDS011;4750;49.506;10.400;2022-07-12T00:11:43;2.50;;;2.30;;
9422;SDS011;4750;49.506;10.400;2022-07-12T00:14:27;7.93;;;2.30;;
9422;SDS011;4750;49.506;10.400;2022-07-12T00:17:11;2.50;;;2.30;;
9422;SDS011;4750;49.506;10.400;2022-07-12T00:19:55;3.20;;;2.40;;
9422;SDS011;4750;49.506;10.400;2022-07-12T00:22:39;3.03;;;2.43;;
9422;SDS011;4750;49.506;10.400;2022-07-12T00:25:23;2.67;;;2.47;;
9422;SDS011;4750;49.506;10.400;2022-07-12T00:28:09;2.70;;;2.47;;
9422;SDS011;4750;49.506;10.400;2022-07-12T00:30:53;3.37;;;3.07;;
9422;SDS011;4750;49.506;10.400;2022-07-12T00:33:37;2.40;;;2.20;;
9422;SDS011;4750;49.506;10.400;2022-07-12T00:36:21;2.40;;;2.20;;
9422;SDS011;4750;49.506;10.400;2022-07-12T00:39:05;2.83;;;2.10;;
9422;SDS011;4750;49.506;10.400;2022-07-12T00:41:49;2.00;;;1.90;;
9422;SDS011;4750;49.506;10.400;2022-07-12T00:44:34;2.30;;;2.10;;
9422;SDS011;4750;49.506;10.400;2022-07-12T00:50:24;3.77;;;1.70;;
9422;SDS011;4750;49.506;10.400;2022-07-12T00:53:08;2.00;;;1.90;;
9422;SDS011;4750;49.506;10.400;2022-07-12T00:55:53;2.20;;;2.00;;
9422;SDS011;4750;49.506;10.400;2022-07-12T00:58:39;1.60;;;1.50;;
9422;SDS011;4750;49.506;10.400;2022-07-12T01:01:24;1.87;;;1.43;;
9422;SDS011;4750;49.506;10.400;2022-07-12T01:04:09;2.03;;;1.80;;
9422;SDS011;4750;49.506;10.400;2022-07-12T01:06:54;1.80;;;1.70;;
9422;SDS011;4750;49.506;10.400;2022-07-12T01:09:38;1.97;;;1.80;;
9422;SDS011;4750;49.506;10.400;2022-07-12T01:12:22;2.00;;;1.80;;
9422;SDS011;4750;49.506;10.400;2022-07-12T01:15:08;1.73;;;1.63;;
9422;SDS011;4750;49.506;10.400;2022-07-12T01:17:53;1.80;;;1.70;;
9422;SDS011;4750;49.506;10.400;2022-07-12T01:20:37;5.90;;;1.70;;
9422;SDS011;4750;49.506;10.400;2022-07-12T01:23:22;2.00;;;1.80;;
9422;SDS011;4750;49.506;10.400;2022-07-12T01:26:07;2.17;;;1.60;;
9422;SDS011;4750;49.506;10.400;2022-07-12T01:28:51;2.60;;;1.73;;
9422;SDS011;4750;49.506;10.400;2022-07-12T01:31:36;3.17;;;2.10;;
9422;SDS011;4750;49.506;10.400;2022-07-12T01:34:20;2.70;;;1.70;;
9422;SDS011;4750;49.506;10.400;2022-07-12T01:37:05;2.10;;;1.90;;
9422;SDS011;4750;49.506;10.400;2022-07-12T01:39:50;1.70;;;1.60;;
9422;SDS011;4750;49.506;10.400;2022-07-12T01:42:36;2.00;;;1.80;;
9422;SDS011;4750;49.506;10.400;2022-07-12T01:45:21;2.20;;;1.90;;
9422;SDS011;4750;49.506;10.400;2022-07-12T01:48:05;1.90;;;1.80;;
9422;SDS011;4750;49.506;10.400;2022-07-12T01:50:49;2.27;;;1.83;;
9422;SDS011;4750;49.506;10.400;2022-07-12T01:53:34;2.20;;;2.07;;
9422;SDS011;4750;49.506;10.400;2022-07-12T01:56:19;2.50;;;2.00;;
9422;SDS011;4750;49.506;10.400;2022-07-12T01:59:03;1.77;;;1.67;;
9422;SDS011;4750;49.506;10.400;2022-07-12T02:01:47;2.37;;;2.00;;
9422;SDS011;4750;49.506;10.400;2022-07-12T02:04:32;1.83;;;1.73;;
9422;SDS011;4750;49.506;10.400;2022-07-12T02:07:16;2.30;;;2.10;;
9422;SDS011;4750;49.506;10.400;2022-07-12T02:09:59;2.07;;;1.90;;
9422;SDS011;4750;49.506;10.400;2022-07-12T02:12:43;2.63;;;1.97;;
9422;SDS011;4750;49.506;10.400;2022-07-12T02:15:27;1.80;;;1.70;;
9422;SDS011;4750;49.506;10.400;2022-07-12T02:18:11;2.77;;;2.10;;
9422;SDS011;4750;49.506;10.400;2022-07-12T02:20:55;1.77;;;1.67;;
9422;SDS011;4750;49.506;10.400;2022-07-12T02:23:39;2.00;;;1.90;;
9422;SDS011;4750;49.506;10.400;2022-07-12T02:26:23;1.90;;;1.80;;
9422;SDS011;4750;49.506;10.400;2022-07-12T02:29:07;1.83;;;1.70;;
9422;SDS011;4750;49.506;10.400;2022-07-12T02:31:51;1.70;;;1.60;;
9422;SDS011;4750;49.506;10.400;2022-07-12T02:34:35;1.60;;;1.50;;
9422;SDS011;4750;49.506;10.400;2022-07-12T02:37:19;2.33;;;1.90;;
9422;SDS011;4750;49.506;10.400;2022-07-12T02:40:03;1.80;;;1.70;;
9422;SDS011;4750;49.506;10.400;2022-07-12T02:43:06;1.80;;;1.70;;
9422;SDS011;4750;49.506;10.400;2022-07-12T02:45:51;1.57;;;1.47;;
9422;SDS011;4750;49.506;10.400;2022-07-12T02:48:36;1.50;;;1.40;;
9422;SDS011;4750;49.506;10.400;2022-07-12T02:51:20;2.80;;;1.70;;
9422;SDS011;4750;49.506;10.400;2022-07-12T02:54:04;2.00;;;1.87;;
9422;SDS011;4750;49.506;10.400;2022-07-12T02:56:48;1.90;;;1.70;;
9422;SDS011;4750;49.506;10.400;2022-07-12T02:59:32;1.50;;;1.40;;
9422;SDS011;4750;49.506;10.400;2022-07-12T03:02:16;2.20;;;1.67;;
9422;SDS011;4750;49.506;10.400;2022-07-12T03:05:00;1.53;;;1.43;;
9422;SDS011;4750;49.506;10.400;2022-07-12T03:07:44;1.70;;;1.60;;
9422;SDS011;4750;49.506;10.400;2022-07-12T03:10:28;1.90;;;1.63;;
9422;SDS011;4750;49.506;10.400;2022-07-12T03:13:12;1.83;;;1.73;;
9422;SDS011;4750;49.506;10.400;2022-07-12T03:15:56;2.83;;;1.80;;
9422;SDS011;4750;49.506;10.400;2022-07-12T03:18:40;1.73;;;1.53;;
9422;SDS011;4750;49.506;10.400;2022-07-12T03:21:24;1.67;;;1.57;;
9422;SDS011;4750;49.506;10.400;2022-07-12T03:24:08;1.70;;;1.40;;
9422;SDS011;4750;49.506;10.400;2022-07-12T03:26:53;2.20;;;1.47;;
9422;SDS011;4750;49.506;10.400;2022-07-12T03:29:37;2.00;;;1.53;;
9422;SDS011;4750;49.506;10.400;2022-07-12T03:32:23;2.07;;;1.70;;
9422;SDS011;4750;49.506;10.400;2022-07-12T03:35:07;1.70;;;1.60;;
9422;SDS011;4750;49.506;10.400;2022-07-12T03:37:52;1.50;;;1.40;;
9422;SDS011;4750;49.506;10.400;2022-07-12T03:40:37;2.47;;;1.90;;
9422;SDS011;4750;49.506;10.400;2022-07-12T03:43:21;1.93;;;1.83;;
9422;SDS011;4750;49.506;10.400;2022-07-12T03:46:05;2.17;;;1.60;;
9422;SDS011;4750;49.506;10.400;2022-07-12T03:48:49;1.83;;;1.60;;
9422;SDS011;4750;49.506;10.400;2022-07-12T03:51:33;1.53;;;1.43;;
9422;SDS011;4750;49.506;10.400;2022-07-12T03:54:17;2.23;;;1.57;;
9422;SDS011;4750;49.506;10.400;2022-07-12T03:57:01;1.70;;;1.60;;
9422;SDS011;4750;49.506;10.400;2022-07-12T03:59:57;1.70;;;1.60;;
9422;SDS011;4750;49.506;10.400;2022-07-12T04:02:41;1.63;;;1.53;;
9422;SDS011;4750;49.506;10.400;2022-07-12T04:05:26;1.70;;;1.60;;
9422;SDS011;4750;49.506;10.400;2022-07-12T04:08:10;1.93;;;1.70;;
9422;SDS011;4750;49.506;10.400;2022-07-12T04:10:54;1.90;;;1.80;;
9422;SDS011;4750;49.506;10.400;2022-07-12T04:13:39;1.80;;;1.70;;
9422;SDS011;4750;49.506;10.400;2022-07-12T04:16:23;3.23;;;1.90;;
9422;SDS011;4750;49.506;10.400;2022-07-12T04:19:07;2.00;;;1.90;;
9422;SDS011;4750;49.506;10.400;2022-07-12T04:21:56;2.37;;;2.17;;
9422;SDS011;4750;49.506;10.400;2022-07-12T04:24:40;2.23;;;2.00;;
9422;SDS011;4750;49.506;10.400;2022-07-12T04:27:24;2.50;;;2.30;;
9422;SDS011;4750;49.506;10.400;2022-07-12T04:30:10;2.10;;;2.00;;
9422;SDS011;4750;49.506;10.400;2022-07-12T04:32:54;1.80;;;1.70;;
9422;SDS011;4750;49.506;10.400;2022-07-12T04:35:38;1.90;;;1.80;;
9422;SDS011;4750;49.506;10.400;2022-07-12T04:38:22;1.90;;;1.80;;
9422;SDS011;4750;49.506;10.400;2022-07-12T04:41:06;1.80;;;1.70;;
9422;SDS011;4750;49.506;10.400;2022-07-12T04:43:50;2.03;;;1.93;;
9422;SDS011;4750;49.506;10.400;2022-07-12T04:46:34;2.27;;;2.03;;
9422;SDS011;4750;49.506;10.400;2022-07-12T04:49:18;2.50;;;2.30;;
9422;SDS011;4750;49.506;10.400;2022-07-12T04:52:02;2.80;;;2.20;;
9422;SDS011;4750;49.506;10.400;2022-07-12T04:54:46;2.57;;;2.37;;
9422;SDS011;4750;49.506;10.400;2022-07-12T05:00:18;2.77;;;2.40;;
9422;SDS011;4750;49.506;10.400;2022-07-12T05:03:02;3.20;;;2.90;;
9422;SDS011;4750;49.506;10.400;2022-07-12T05:05:46;2.90;;;2.63;;
9422;SDS011;4750;49.506;10.400;2022-07-12T05:08:30;2.97;;;2.50;;
9422;SDS011;4750;49.506;10.400;2022-07-12T05:11:15;5.23;;;2.50;;
9422;SDS011;4750;49.506;10.400;2022-07-12T05:13:58;2.27;;;2.07;;
9422;SDS011;4750;49.506;10.400;2022-07-12T05:16:42;2.37;;;2.17;;
9422;SDS011;4750;49.506;10.400;2022-07-12T05:19:26;2.40;;;2.20;;
9422;SDS011;4750;49.506;10.400;2022-07-12T05:22:10;1.63;;;1.40;;
9422;SDS011;4750;49.506;10.400;2022-07-12T05:24:54;1.73;;;1.63;;
9422;SDS011;4750;49.506;10.400;2022-07-12T05:27:38;1.50;;;1.40;;
9422;SDS011;4750;49.506;10.400;2022-07-12T05:30:22;1.97;;;1.33;;
9422;SDS011;4750;49.506;10.400;2022-07-12T05:33:06;1.97;;;1.50;;
9422;SDS011;4750;49.506;10.400;2022-07-12T05:35:50;3.73;;;1.50;;
9422;SDS011;4750;49.506;10.400;2022-07-12T05:38:35;2.50;;;1.20;;
9422;SDS011;4750;49.506;10.400;2022-07-12T05:41:19;1.40;;;1.30;;
9422;SDS011;4750;49.506;10.400;2022-07-12T05:44:03;1.30;;;1.20;;
9422;SDS011;4750;49.506;10.400;2022-07-12T05:46:47;3.00;;;1.30;;
9422;SDS011;4750;49.506;10.400;2022-07-12T05:49:31;2.03;;;1.33;;
9422;SDS011;4750;49.506;10.400;2022-07-12T05:52:15;1.13;;;1.13;;
9422;SDS011;4750;49.506;10.400;2022-07-12T05:55:18;1.60;;;1.40;;
9422;SDS011;4750;49.506;10.400;2022-07-12T05:58:01;2.90;;;1.30;;
9422;SDS011;4750;49.506;10.400;2022-07-12T06:00:47;2.00;;;1.10;;
9422;SDS011;4750;49.506;10.400;2022-07-12T06:03:31;1.27;;;1.17;;
9422;SDS011;4750;49.506;10.400;2022-07-12T06:06:15;1.10;;;1.10;;
9422;SDS011;4750;49.506;10.400;2022-07-12T06:08:59;2.10;;;1.10;;
9422;SDS011;4750;49.506;10.400;2022-07-12T06:11:43;1.10;;;1.00;;
9422;SDS011;4750;49.506;10.400;2022-07-12T06:14:27;1.83;;;1.17;;
9422;SDS011;4750;49.506;10.400;2022-07-12T06:17:11;0.90;;;0.90;;
9422;SDS011;4750;49.506;10.400;2022-07-12T06:19:55;2.30;;;1.17;;
9422;SDS011;4750;49.506;10.400;2022-07-12T06:22:39;1.93;;;1.40;;
9422;SDS011;4750;49.506;10.400;2022-07-12T06:25:23;1.00;;;1.00;;
9422;SDS011;4750;49.506;10.400;2022-07-12T06:28:07;1.27;;;1.00;;
9422;SDS011;4750;49.506;10.400;2022-07-12T06:30:51;1.83;;;1.10;;
9422;SDS011;4750;49.506;10.400;2022-07-12T06:33:35;1.27;;;1.10;;
9422;SDS011;4750;49.506;10.400;2022-07-12T06:36:19;1.13;;;1.00;;
9422;SDS011;4750;49.506;10.400;2022-07-12T06:39:03;1.10;;;1.10;;
9422;SDS011;4750;49.506;10.400;2022-07-12T06:41:47;1.90;;;1.20;;
9422;SDS011;4750;49.506;10.400;2022-07-12T06:44:31;1.20;;;1.10;;
9422;SDS011;4750;49.506;10.400;2022-07-12T06:47:16;2.13;;;1.20;;
9422;SDS011;4750;49.506;10.400;2022-07-12T06:50:00;1.00;;;1.00;;
9422;SDS011;4750;49.506;10.400;2022-07-12T06:52:44;1.90;;;1.13;;
9422;SDS011;4750;49.506;10.400;2022-07-12T06:55:28;1.10;;;1.10;;
9422;SDS011;4750;49.506;10.400;2022-07-12T06:58:13;1.23;;;1.20;;
9422;SDS011;4750;49.506;10.400;2022-07-12T07:00:58;1.20;;;1.10;;
9422;SDS011;4750;49.506;10.400;2022-07-12T07:03:41;2.20;;;0.87;;
9422;SDS011;4750;49.506;10.400;2022-07-12T07:06:25;2.45;;;1.20;;
9422;SDS011;4750;49.506;10.400;2022-07-12T07:09:09;1.13;;;1.03;;
9422;SDS011;4750;49.506;10.400;2022-07-12T07:11:54;1.00;;;1.00;;
9422;SDS011;4750;49.506;10.400;2022-07-12T07:14:37;1.07;;;0.87;;
9422;SDS011;4750;49.506;10.400;2022-07-12T07:17:21;1.23;;;1.10;;
9422;SDS011;4750;49.506;10.400;2022-07-12T07:20:05;2.60;;;1.30;;
9422;SDS011;4750;49.506;10.400;2022-07-12T07:22:50;2.03;;;1.60;;
9422;SDS011;4750;49.506;10.400;2022-07-12T07:25:34;1.37;;;1.27;;
9422;SDS011;4750;49.506;10.400;2022-07-12T07:28:18;2.00;;;1.20;;
9422;SDS011;4750;49.506;10.400;2022-07-12T07:31:01;1.30;;;1.20;;
9422;SDS011;4750;49.506;10.400;2022-07-12T07:33:45;1.30;;;1.20;;
9422;SDS011;4750;49.506;10.400;2022-07-12T07:36:30;1.87;;;1.50;;
9422;SDS011;4750;49.506;10.400;2022-07-12T07:39:15;1.93;;;1.50;;
9422;SDS011;4750;49.506;10.400;2022-07-12T07:41:59;1.50;;;1.37;;
9422;SDS011;4750;49.506;10.400;2022-07-12T07:44:43;1.57;;;1.30;;
9422;SDS011;4750;49.506;10.400;2022-07-12T07:47:27;1.50;;;1.40;;
9422;SDS011;4750;49.506;10.400;2022-07-12T07:50:11;1.37;;;1.33;;
9422;SDS011;4750;49.506;10.400;2022-07-12T07:52:55;1.27;;;1.27;;
9422;SDS011;4750;49.506;10.400;2022-07-12T07:55:39;1.10;;;1.10;;
9422;SDS011;4750;49.506;10.400;2022-07-12T07:58:23;0.93;;;0.93;;
9422;SDS011;4750;49.506;10.400;2022-07-12T08:01:08;0.90;;;0.90;;
9422;SDS011;4750;49.506;10.400;2022-07-12T08:03:53;2.73;;;1.17;;
9422;SDS011;4750;49.506;10.400;2022-07-12T08:06:37;0.83;;;0.83;;
9422;SDS011;4750;49.506;10.400;2022-07-12T08:09:21;1.40;;;1.13;;
9422;SDS011;4750;49.506;10.400;2022-07-12T08:12:06;1.57;;;1.10;;
9422;SDS011;4750;49.506;10.400;2022-07-12T08:14:50;1.13;;;1.10;;
9422;SDS011;4750;49.506;10.400;2022-07-12T08:17:34;0.90;;;0.90;;
9422;SDS011;4750;49.506;10.400;2022-07-12T08:20:21;1.27;;;1.10;;
9422;SDS011;4750;49.506;10.400;2022-07-12T08:23:06;0.90;;;0.90;;
9422;SDS011;4750;49.506;10.400;2022-07-12T08:25:51;0.70;;;0.70;;
9422;SDS011;4750;49.506;10.400;2022-07-12T08:28:35;1.00;;;1.00;;
9422;SDS011;4750;49.506;10.400;2022-07-12T08:31:19;1.03;;;1.00;;
9422;SDS011;4750;49.506;10.400;2022-07-12T08:34:03;1.20;;;1.10;;
9422;SDS011;4750;49.506;10.400;2022-07-12T08:36:47;1.10;;;1.00;;
9422;SDS011;4750;49.506;10.400;2022-07-12T08:39:31;1.63;;;0.80;;
9422;SDS011;4750;49.506;10.400;2022-07-12T08:42:15;0.90;;;0.90;;
9422;SDS011;4750;49.506;10.400;2022-07-12T08:45:00;0.60;;;0.60;;
9422;SDS011;4750;49.506;10.400;2022-07-12T08:47:44;1.60;;;0.60;;
9422;SDS011;4750;49.506;10.400;2022-07-12T08:50:28;0.77;;;0.77;;
9422;SDS011;4750;49.506;10.400;2022-07-12T08:53:12;0.67;;;0.50;;
9422;SDS011;4750;49.506;10.400;2022-07-12T08:55:56;0.50;;;0.50;;
9422;SDS011;4750;49.506;10.400;2022-07-12T08:58:41;0.60;;;0.60;;
9422;SDS011;4750;49.506;10.400;2022-07-12T09:01:38;0.43;;;0.43;;
9422;SDS011;4750;49.506;10.400;2022-07-12T09:04:33;0.93;;;0.67;;
9422;SDS011;4750;49.506;10.400;2022-07-12T09:07:17;0.93;;;0.70;;
9422;SDS011;4750;49.506;10.400;2022-07-12T09:10:08;0.50;;;0.50;;
9422;SDS011;4750;49.506;10.400;2022-07-12T09:12:53;0.60;;;0.60;;
9422;SDS011;4750;49.506;10.400;2022-07-12T09:15:37;1.67;;;0.80;;
9422;SDS011;4750;49.506;10.400;2022-07-12T09:18:21;0.77;;;0.60;;
9422;SDS011;4750;49.506;10.400;2022-07-12T09:21:21;2.00;;;0.67;;
9422;SDS011;4750;49.506;10.400;2022-07-12T09:24:13;1.17;;;0.60;;
9422;SDS011;4750;49.506;10.400;2022-07-12T09:26:59;0.67;;;0.50;;
9422;SDS011;4750;49.506;10.400;2022-07-12T09:29:48;0.83;;;0.60;;
9422;SDS011;4750;49.506;10.400;2022-07-12T09:32:33;0.60;;;0.60;;
9422;SDS011;4750;49.506;10.400;2022-07-12T09:35:36;0.67;;;0.67;;
9422;SDS011;4750;49.506;10.400;2022-07-12T09:41:29;2.97;;;0.90;;
9422;SDS011;4750;49.506;10.400;2022-07-12T09:44:14;0.83;;;0.50;;
9422;SDS011;4750;49.506;10.400;2022-07-12T09:46:59;0.60;;;0.60;;
9422;SDS011;4750;49.506;10.400;2022-07-12T09:49:44;0.50;;;0.50;;
9422;SDS011;4750;49.506;10.400;2022-07-12T09:52:29;0.60;;;0.60;;
9422;SDS011;4750;49.506;10.400;2022-07-12T09:55:16;0.73;;;0.50;;
9422;SDS011;4750;49.506;10.400;2022-07-12T09:58:02;0.60;;;0.60;;
9422;SDS011;4750;49.506;10.400;2022-07-12T10:00:47;0.50;;;0.50;;
9422;SDS011;4750;49.506;10.400;2022-07-12T10:03:34;0.40;;;0.40;;
9422;SDS011;4750;49.506;10.400;2022-07-12T10:06:24;0.50;;;0.50;;
9422;SDS011;4750;49.506;10.400;2022-07-12T10:09:10;2.10;;;0.80;;
9422;SDS011;4750;49.506;10.400;2022-07-12T10:11:54;1.03;;;0.53;;
9422;SDS011;4750;49.506;10.400;2022-07-12T10:14:40;0.60;;;0.60;;
9422;SDS011;4750;49.506;10.400;2022-07-12T10:20:14;0.50;;;0.50;;
9422;SDS011;4750;49.506;10.400;2022-07-12T10:26:24;0.53;;;0.53;;
9422;SDS011;4750;49.506;10.400;2022-07-12T10:29:10;0.40;;;0.40;;
9422;SDS011;4750;49.506;10.400;2022-07-12T10:32:18;0.40;;;0.40;;
9422;SDS011;4750;49.506;10.400;2022-07-12T10:35:27;0.93;;;0.70;;
9422;SDS011;4750;49.506;10.400;2022-07-12T10:40:55;2.03;;;0.40;;
9422;SDS011;4750;49.506;10.400;2022-07-12T10:43:39;0.83;;;0.40;;
9422;SDS011;4750;49.506;10.400;2022-07-12T10:46:56;0.83;;;0.50;;
9422;SDS011;4750;49.506;10.400;2022-07-12T10:49:43;0.80;;;0.70;;
9422;SDS011;4750;49.506;10.400;2022-07-12T10:52:30;0.57;;;0.57;;
9422;SDS011;4750;49.506;10.400;2022-07-12T10:55:15;1.13;;;0.50;;
9422;SDS011;4750;49.506;10.400;2022-07-12T10:58:01;0.70;;;0.60;;
9422;SDS011;4750;49.506;10.400;2022-07-12T11:00:45;1.80;;;0.70;;
9422;SDS011;4750;49.506;10.400;2022-07-12T11:03:43;0.80;;;0.50;;
9422;SDS011;4750;49.506;10.400;2022-07-12T11:06:33;0.50;;;0.50;;
9422;SDS011;4750;49.506;10.400;2022-07-12T11:09:19;0.50;;;0.50;;
9422;SDS011;4750;49.506;10.400;2022-07-12T11:12:03;0.50;;;0.50;;
9422;SDS011;4750;49.506;10.400;2022-07-12T11:14:50;1.77;;;0.70;;
9422;SDS011;4750;49.506;10.400;2022-07-12T11:17:34;0.60;;;0.60;;
9422;SDS011;4750;49.506;10.400;2022-07-12T11:20:27;0.60;;;0.60;;
9422;SDS011;4750;49.506;10.400;2022-07-12T11:23:12;0.60;;;0.60;;
9422;SDS011;4750;49.506;10.400;2022-07-12T11:25:58;0.70;;;0.70;;
9422;SDS011;4750;49.506;10.400;2022-07-12T11:28:43;0.30;;;0.30;;
9422;SDS011;4750;49.506;10.400;2022-07-12T11:31:28;0.70;;;0.70;;
9422;SDS011;4750;49.506;10.400;2022-07-12T11:34:22;1.03;;;0.40;;
9422;SDS011;4750;49.506;10.400;2022-07-12T11:37:07;1.50;;;0.57;;
9422;SDS011;4750;49.506;10.400;2022-07-12T11:39:51;0.87;;;0.60;;
9422;SDS011;4750;49.506;10.400;2022-07-12T11:42:34;0.57;;;0.57;;
9422;SDS011;4750;49.506;10.400;2022-07-12T11:45:18;1.80;;;0.50;;
9422;SDS011;4750;49.506;10.400;2022-07-12T11:48:03;0.53;;;0.50;;
9422;SDS011;4750;49.506;10.400;2022-07-12T11:50:48;1.90;;;0.60;;
9422;SDS011;4750;49.506;10.400;2022-07-12T11:53:34;0.43;;;0.43;;
9422;SDS011;4750;49.506;10.400;2022-07-12T11:56:28;0.50;;;0.50;;
9422;SDS011;4750;49.506;10.400;2022-07-12T11:59:13;0.40;;;0.40;;
9422;SDS011;4750;49.506;10.400;2022-07-12T12:02:06;0.97;;;0.60;;
9422;SDS011;4750;49.506;10.400;2022-07-12T12:04:52;0.77;;;0.57;;
9422;SDS011;4750;49.506;10.400;2022-07-12T12:07:38;0.50;;;0.50;;
9422;SDS011;4750;49.506;10.400;2022-07-12T12:10:22;0.47;;;0.40;;
9422;SDS011;4750;49.506;10.400;2022-07-12T12:13:12;1.07;;;0.50;;
9422;SDS011;4750;49.506;10.400;2022-07-12T12:16:00;0.43;;;0.43;;
9422;SDS011;4750;49.506;10.400;2022-07-12T12:18:46;0.43;;;0.43;;
9422;SDS011;4750;49.506;10.400;2022-07-12T12:21:30;0.50;;;0.50;;
9422;SDS011;4750;49.506;10.400;2022-07-12T12:24:18;0.40;;;0.40;;
9422;SDS011;4750;49.506;10.400;2022-07-12T12:27:02;1.13;;;0.43;;
9422;SDS011;4750;49.506;10.400;2022-07-12T12:29:46;0.50;;;0.50;;
9422;SDS011;4750;49.506;10.400;2022-07-12T12:32:42;0.50;;;0.50;;
9422;SDS011;4750;49.506;10.400;2022-07-12T12:35:37;0.40;;;0.40;;
9422;SDS011;4750;49.506;10.400;2022-07-12T12:38:22;0.40;;;0.40;;
9422;SDS011;4750;49.506;10.400;2022-07-12T12:41:06;2.00;;;0.40;;
9422;SDS011;4750;49.506;10.400;2022-07-12T12:43:56;0.63;;;0.50;;
9422;SDS011;4750;49.506;10.400;2022-07-12T12:50:00;0.30;;;0.30;;
9422;SDS011;4750;49.506;10.400;2022-07-12T12:52:47;0.50;;;0.50;;
9422;SDS011;4750;49.506;10.400;2022-07-12T12:55:31;0.87;;;0.50;;
9422;SDS011;4750;49.506;10.400;2022-07-12T12:58:15;0.30;;;0.30;;
9422;SDS011;4750;49.506;10.400;2022-07-12T13:01:00;0.30;;;0.30;;
9422;SDS011;4750;49.506;10.400;2022-07-12T13:03:44;2.07;;;0.50;;
9422;SDS011;4750;49.506;10.400;2022-07-12T13:06:28;0.40;;;0.40;;
9422;SDS011;4750;49.506;10.400;2022-07-12T13:09:12;0.50;;;0.50;;
9422;SDS011;4750;49.506;10.400;2022-07-12T13:11:56;0.40;;;0.40;;
9422;SDS011;4750;49.506;10.400;2022-07-12T13:14:40;0.40;;;0.40;;
9422;SDS011;4750;49.506;10.400;2022-07-12T13:17:25;0.50;;;0.50;;
9422;SDS011;4750;49.506;10.400;2022-07-12T13:20:09;3.07;;;0.70;;
9422;SDS011;4750;49.506;10.400;2022-07-12T13:22:53;1.27;;;0.50;;
9422;SDS011;4750;49.506;10.400;2022-07-12T13:25:37;2.03;;;0.60;;
9422;SDS011;4750;49.506;10.400;2022-07-12T13:28:21;0.63;;;0.50;;
9422;SDS011;4750;49.506;10.400;2022-07-12T13:31:05;2.53;;;0.40;;
9422;SDS011;4750;49.506;10.400;2022-07-12T13:33:50;0.40;;;0.40;;
9422;SDS011;4750;49.506;10.400;2022-07-12T13:36:34;0.77;;;0.50;;
9422;SDS011;4750;49.506;10.400;2022-07-12T13:39:18;0.40;;;0.40;;
9422;SDS011;4750;49.506;10.400;2022-07-12T13:42:21;0.63;;;0.40;;
9422;SDS011;4750;49.506;10.400;2022-07-12T13:45:05;1.03;;;0.60;;
9422;SDS011;4750;49.506;10.400;2022-07-12T13:47:52;0.40;;;0.40;;
9422;SDS011;4750;49.506;10.400;2022-07-12T13:50:36;1.80;;;0.50;;
9422;SDS011;4750;49.506;10.400;2022-07-12T13:53:20;1.50;;;0.40;;
9422;SDS011;4750;49.506;10.400;2022-07-12T13:56:04;0.30;;;0.30;;
9422;SDS011;4750;49.506;10.400;2022-07-12T13:58:48;1.20;;;0.60;;
9422;SDS011;4750;49.506;10.400;2022-07-12T14:01:33;0.70;;;0.70;;
9422;SDS011;4750;49.506;10.400;2022-07-12T14:04:16;0.83;;;0.33;;
9422;SDS011;4750;49.506;10.400;2022-07-12T14:07:01;0.50;;;0.50;;
9422;SDS011;4750;49.506;10.400;2022-07-12T14:09:45;0.77;;;0.60;;
9422;SDS011;4750;49.506;10.400;2022-07-12T14:12:29;0.37;;;0.37;;
9422;SDS011;4750;49.506;10.400;2022-07-12T14:15:14;1.63;;;0.50;;
9422;SDS011;4750;49.506;10.400;2022-07-12T14:17:58;0.50;;;0.40;;
9422;SDS011;4750;49.506;10.400;2022-07-12T14:20:42;1.07;;;0.50;;
9422;SDS011;4750;49.506;10.400;2022-07-12T14:23:28;0.50;;;0.50;;
9422;SDS011;4750;49.506;10.400;2022-07-12T14:26:13;0.73;;;0.40;;
9422;SDS011;4750;49.506;10.400;2022-07-12T14:28:57;0.73;;;0.50;;
9422;SDS011;4750;49.506;10.400;2022-07-12T14:31:41;2.20;;;0.50;;
9422;SDS011;4750;49.506;10.400;2022-07-12T14:34:25;0.57;;;0.37;;
9422;SDS011;4750;49.506;10.400;2022-07-12T14:37:09;0.50;;;0.50;;
9422;SDS011;4750;49.506;10.400;2022-07-12T14:39:53;0.80;;;0.60;;
9422;SDS011;4750;49.506;10.400;2022-07-12T14:42:37;0.50;;;0.50;;
9422;SDS011;4750;49.506;10.400;2022-07-12T14:45:21;2.93;;;0.40;;
9422;SDS011;4750;49.506;10.400;2022-07-12T14:48:05;0.40;;;0.40;;
9422;SDS011;4750;49.506;10.400;2022-07-12T14:50:49;0.67;;;0.67;;
9422;SDS011;4750;49.506;10.400;2022-07-12T14:53:33;0.60;;;0.50;;
9422;SDS011;4750;49.506;10.400;2022-07-12T14:56:18;0.60;;;0.60;;
9422;SDS011;4750;49.506;10.400;2022-07-12T14:59:05;3.40;;;0.70;;
9422;SDS011;4750;49.506;10.400;2022-07-12T15:01:49;0.40;;;0.40;;
9422;SDS011;4750;49.506;10.400;2022-07-12T15:04:34;2.10;;;0.60;;
9422;SDS011;4750;49.506;10.400;2022-07-12T15:07:18;0.47;;;0.47;;
9422;SDS011;4750;49.506;10.400;2022-07-12T15:10:02;0.67;;;0.60;;
9422;SDS011;4750;49.506;10.400;2022-07-12T15:12:47;0.90;;;0.53;;
9422;SDS011;4750;49.506;10.400;2022-07-12T15:15:32;0.33;;;0.33;;
9422;SDS011;4750;49.506;10.400;2022-07-12T15:18:16;0.73;;;0.60;;
9422;SDS011;4750;49.506;10.400;2022-07-12T15:21:01;0.53;;;0.53;;
9422;SDS011;4750;49.506;10.400;2022-07-12T15:23:49;0.70;;;0.70;;
9422;SDS011;4750;49.506;10.400;2022-07-12T15:26:33;0.50;;;0.50;;
9422;SDS011;4750;49.506;10.400;2022-07-12T15:29:17;0.40;;;0.40;;
9422;SDS011;4750;49.506;10.400;2022-07-12T15:32:01;0.73;;;0.73;;
9422;SDS011;4750;49.506;10.400;2022-07-12T15:34:45;1.53;;;0.60;;
9422;SDS011;4750;49.506;10.400;2022-07-12T15:37:29;0.50;;;0.30;;
9422;SDS011;4750;49.506;10.400;2022-07-12T15:40:13;0.83;;;0.50;;
9422;SDS011;4750;49.506;10.400;2022-07-12T15:42:57;0.50;;;0.50;;
9422;SDS011;4750;49.506;10.400;2022-07-12T15:45:41;0.57;;;0.50;;
9422;SDS011;4750;49.506;10.400;2022-07-12T15:48:25;0.93;;;0.50;;
9422;SDS011;4750;49.506;10.400;2022-07-12T15:51:09;1.07;;;0.60;;
9422;SDS011;4750;49.506;10.400;2022-07-12T15:53:54;0.60;;;0.60;;
9422;SDS011;4750;49.506;10.400;2022-07-12T15:56:38;2.53;;;0.50;;
9422;SDS011;4750;49.506;10.400;2022-07-12T15:59:22;0.40;;;0.40;;
9422;SDS011;4750;49.506;10.400;2022-07-12T16:02:06;2.93;;;0.50;;
9422;SDS011;4750;49.506;10.400;2022-07-12T16:04:49;1.30;;;0.80;;
9422;SDS011;4750;49.506;10.400;2022-07-12T16:07:33;0.50;;;0.50;;
9422;SDS011;4750;49.506;10.400;2022-07-12T16:10:22;0.50;;;0.50;;
9422;SDS011;4750;49.506;10.400;2022-07-12T16:13:07;0.63;;;0.60;;
9422;SDS011;4750;49.506;10.400;2022-07-12T16:15:51;1.83;;;0.57;;
9422;SDS011;4750;49.506;10.400;2022-07-12T16:18:35;0.53;;;0.53;;
9422;SDS011;4750;49.506;10.400;2022-07-12T16:21:19;0.57;;;0.57;;
9422;SDS011;4750;49.506;10.400;2022-07-12T16:24:03;1.10;;;0.70;;
9422;SDS011;4750;49.506;10.400;2022-07-12T16:26:48;1.20;;;0.70;;
9422;SDS011;4750;49.506;10.400;2022-07-12T16:29:31;0.50;;;0.50;;
9422;SDS011;4750;49.506;10.400;2022-07-12T16:32:16;0.60;;;0.50;;
9422;SDS011;4750;49.506;10.400;2022-07-12T16:35:00;0.67;;;0.40;;
9422;SDS011;4750;49.506;10.400;2022-07-12T16:37:45;1.10;;;0.70;;
9422;SDS011;4750;49.506;10.400;2022-07-12T16:40:30;2.03;;;0.67;;
9422;SDS011;4750;49.506;10.400;2022-07-12T16:43:14;0.80;;;0.80;;
9422;SDS011;4750;49.506;10.400;2022-07-12T16:45:58;1.67;;;0.80;;
9422;SDS011;4750;49.506;10.400;2022-07-12T16:48:42;0.30;;;0.30;;
9422;SDS011;4750;49.506;10.400;2022-07-12T16:51:26;0.83;;;0.70;;
9422;SDS011;4750;49.506;10.400;2022-07-12T16:54:10;0.70;;;0.70;;
9422;SDS011;4750;49.506;10.400;2022-07-12T16:56:55;0.90;;;0.90;;
9422;SDS011;4750;49.506;10.400;2022-07-12T16:59:39;2.23;;;0.70;;
9422;SDS011;4750;49.506;10.400;2022-07-12T17:02:23;1.73;;;0.87;;
9422;SDS011;4750;49.506;10.400;2022-07-12T17:05:07;7.97;;;3.70;;
9422;SDS011;4750;49.506;10.400;2022-07-12T17:07:51;0.40;;;0.40;;
9422;SDS011;4750;49.506;10.400;2022-07-12T17:10:35;0.50;;;0.50;;